sensor_id;sensor_type;location;lat;lon;timestamp;pressure;altitude;pressure_sealevel;temperature;humidity
13553;BME280;6847;48.830;9.116;2023-01-25T00:01:54;99517.00;;;6.25;62.76
13553;BME280;6847;48.830;9.116;2023-01-25T00:04:40;99514.91;;;6.27;63.12
13553;BME280;6847;48.830;9.116;2023-01-25T00:07:25;99510.38;;;6.21;63.12
13553;BME280;6847;48.830;9.116;2023-01-25T00:10:10;99509.13;;;6.24;62.38
13553;BME280;6847;48.830;9.116;2023-01-25T00:12:57;99508.31;;;6.23;62.64
13553;BME280;6847;48.830;9.116;2023-01-25T00:15:44;99502.94;;;6.23;62.87
13553;BME280;6847;48.830;9.116;2023-01-25T00:18:30;99488.03;;;6.21;62.96
13553;BME280;6847;48.830;9.116;2023-01-25T00:21:16;99482.25;;;6.24;62.55
13553;BME280;6847;48.830;9.116;2023-01-25T00:24:02;99467.56;;;6.13;62.50
13553;BME280;6847;48.830;9.116;2023-01-25T00:26:48;99485.94;;;6.29;62.86
13553;BME280;6847;48.830;9.116;2023-01-25T00:29:33;99483.88;;;6.31;62.55
13553;BME280;6847;48.830;9.116;2023-01-25T00:32:41;99490.69;;;6.27;63.13
13553;BME280;6847;48.830;9.116;2023-01-25T00:35:37;99483.69;;;6.26;63.16
13553;BME280;6847;48.830;9.116;2023-01-25T00:38:26;99476.47;;;6.14;63.14
13553;BME280;6847;48.830;9.116;2023-01-25T00:41:14;99475.81;;;6.18;62.97
13553;BME280;6847;48.830;9.116;2023-01-25T00:44:03;99495.28;;;6.14;62.98
13553;BME280;6847;48.830;9.116;2023-01-25T00:46:56;99355.38;;;5.30;63.18
13553;BME280;6847;48.830;9.116;2023-01-25T00:49:45;99412.41;;;5.65;63.07
13553;BME280;6847;48.830;9.116;2023-01-25T00:52:38;99484.34;;;6.15;63.11
13553;BME280;6847;48.830;9.116;2023-01-25T00:55:23;99402.88;;;5.69;63.17
13553;BME280;6847;48.830;9.116;2023-01-25T00:58:28;99277.34;;;4.92;62.82
13553;BME280;6847;48.830;9.116;2023-01-25T01:01:18;99383.06;;;5.63;62.98
13553;BME280;6847;48.830;9.116;2023-01-25T01:04:09;99213.59;;;4.54;62.79
13553;BME280;6847;48.830;9.116;2023-01-25T01:07:00;99249.69;;;4.84;63.03
13553;BME280;6847;48.830;9.116;2023-01-25T01:09:52;99147.34;;;4.22;62.85
13553;BME280;6847;48.830;9.116;2023-01-25T01:12:56;99418.19;;;5.94;62.64
13553;BME280;6847;48.830;9.116;2023-01-25T01:23:59;99425.19;;;6.02;63.00
13553;BME280;6847;48.830;9.116;2023-01-25T01:26:49;99177.06;;;4.46;62.63
13553;BME280;6847;48.830;9.116;2023-01-25T01:29:52;99473.53;;;6.28;62.93
13553;BME280;6847;48.830;9.116;2023-01-25T01:32:55;99236.91;;;4.87;63.02
13553;BME280;6847;48.830;9.116;2023-01-25T01:36:05;99302.34;;;5.18;62.83
13553;BME280;6847;48.830;9.116;2023-01-25T01:39:24;99099.94;;;4.02;62.94
13553;BME280;6847;48.830;9.116;2023-01-25T01:54:43;99120.97;;;4.05;62.66
13553;BME280;6847;48.830;9.116;2023-01-25T01:58:12;99205.53;;;4.61;62.77
13553;BME280;6847;48.830;9.116;2023-01-25T02:00:58;99467.56;;;6.20;62.77
13553;BME280;6847;48.830;9.116;2023-01-25T02:07:21;99351.25;;;5.53;63.06
13553;BME280;6847;48.830;9.116;2023-01-25T02:10:30;99426.84;;;6.03;62.66
13553;BME280;6847;48.830;9.116;2023-01-25T02:13:46;99109.84;;;4.08;62.68
13553;BME280;6847;48.830;9.116;2023-01-25T02:17:03;99467.34;;;6.21;63.00
13553;BME280;6847;48.830;9.116;2023-01-25T02:19:53;99172.13;;;4.43;62.53
13553;BME280;6847;48.830;9.116;2023-01-25T02:22:47;99459.47;;;6.20;62.90
13553;BME280;6847;48.830;9.116;2023-01-25T02:26:01;99463.63;;;6.22;62.64
13553;BME280;6847;48.830;9.116;2023-01-25T02:29:37;99130.06;;;4.18;62.89
13553;BME280;6847;48.830;9.116;2023-01-25T02:32:25;99147.78;;;4.32;63.12
13553;BME280;6847;48.830;9.116;2023-01-25T02:35:42;99461.53;;;6.18;63.29
13553;BME280;6847;48.830;9.116;2023-01-25T02:38:45;99312.00;;;5.33;63.09
13553;BME280;6847;48.830;9.116;2023-01-25T02:41:36;99409.91;;;5.96;63.00
13553;BME280;6847;48.830;9.116;2023-01-25T02:44:32;99384.69;;;5.84;62.93
13553;BME280;6847;48.830;9.116;2023-01-25T02:47:42;99292.22;;;5.27;62.59
13553;BME280;6847;48.830;9.116;2023-01-25T02:50:38;99320.25;;;5.44;62.93
13553;BME280;6847;48.830;9.116;2023-01-25T02:53:23;99422.53;;;5.96;63.16
13553;BME280;6847;48.830;9.116;2023-01-25T02:56:10;99378.69;;;5.69;63.27
13553;BME280;6847;48.830;9.116;2023-01-25T02:58:57;99318.44;;;5.25;62.80
13553;BME280;6847;48.830;9.116;2023-01-25T03:01:48;99428.06;;;6.07;63.55
13553;BME280;6847;48.830;9.116;2023-01-25T03:04:38;99421.66;;;6.08;63.19
13553;BME280;6847;48.830;9.116;2023-01-25T03:07:23;99414.84;;;6.06;62.87
13553;BME280;6847;48.830;9.116;2023-01-25T03:10:10;99422.09;;;6.05;63.47
13553;BME280;6847;48.830;9.116;2023-01-25T03:12:56;99160.16;;;4.46;63.06
13553;BME280;6847;48.830;9.116;2023-01-25T03:15:47;99323.13;;;5.49;62.91
13553;BME280;6847;48.830;9.116;2023-01-25T03:18:33;99410.91;;;6.08;63.50
13553;BME280;6847;48.830;9.116;2023-01-25T03:21:19;99370.22;;;5.85;62.90
13553;BME280;6847;48.830;9.116;2023-01-25T03:24:05;99400.38;;;6.07;62.99
13553;BME280;6847;48.830;9.116;2023-01-25T03:26:55;99394.16;;;6.06;63.07
13553;BME280;6847;48.830;9.116;2023-01-25T03:29:59;99369.38;;;5.84;63.61
13553;BME280;6847;48.830;9.116;2023-01-25T03:32:46;99104.06;;;4.12;63.43
13553;BME280;6847;48.830;9.116;2023-01-25T03:35:37;99309.31;;;5.46;63.17
13553;BME280;6847;48.830;9.116;2023-01-25T03:38:25;99357.81;;;5.77;63.63
13553;BME280;6847;48.830;9.116;2023-01-25T03:41:13;99297.34;;;5.35;63.01
13553;BME280;6847;48.830;9.116;2023-01-25T03:44:09;99321.06;;;5.51;63.15
13553;BME280;6847;48.830;9.116;2023-01-25T03:46:59;99412.56;;;6.09;63.17
13553;BME280;6847;48.830;9.116;2023-01-25T03:49:46;99255.66;;;5.13;63.56
13553;BME280;6847;48.830;9.116;2023-01-25T03:52:31;99353.25;;;5.78;63.26
13553;BME280;6847;48.830;9.116;2023-01-25T03:55:22;99397.44;;;6.08;63.19
13553;BME280;6847;48.830;9.116;2023-01-25T03:58:14;99285.13;;;5.39;63.29
13553;BME280;6847;48.830;9.116;2023-01-25T04:01:04;99132.53;;;4.45;63.17
13553;BME280;6847;48.830;9.116;2023-01-25T04:03:50;99369.38;;;5.91;63.46
13553;BME280;6847;48.830;9.116;2023-01-25T04:06:40;99360.50;;;5.84;63.20
13553;BME280;6847;48.830;9.116;2023-01-25T04:09:26;99402.81;;;6.08;63.24
13553;BME280;6847;48.830;9.116;2023-01-25T04:12:14;99389.84;;;6.05;63.45
13553;BME280;6847;48.830;9.116;2023-01-25T04:15:00;99184.91;;;4.74;62.97
13553;BME280;6847;48.830;9.116;2023-01-25T04:17:48;99397.06;;;5.98;63.31
13553;BME280;6847;48.830;9.116;2023-01-25T04:20:34;99214.81;;;4.84;63.20
13553;BME280;6847;48.830;9.116;2023-01-25T04:23:21;99219.56;;;4.89;63.05
13553;BME280;6847;48.830;9.116;2023-01-25T04:26:10;99393.34;;;5.99;63.38
13553;BME280;6847;48.830;9.116;2023-01-25T04:28:57;99362.75;;;5.80;63.42
13553;BME280;6847;48.830;9.116;2023-01-25T04:31:57;99390.88;;;6.04;63.52
13553;BME280;6847;48.830;9.116;2023-01-25T04:34:43;99385.47;;;6.04;63.12
13553;BME280;6847;48.830;9.116;2023-01-25T04:37:28;99376.38;;;6.05;62.86
13553;BME280;6847;48.830;9.116;2023-01-25T04:40:19;99140.34;;;4.60;63.08
13553;BME280;6847;48.830;9.116;2023-01-25T04:43:15;99335.06;;;5.80;63.33
13553;BME280;6847;48.830;9.116;2023-01-25T04:49:30;99353.25;;;5.91;63.45
13553;BME280;6847;48.830;9.116;2023-01-25T04:52:16;99290.50;;;5.52;63.24
13553;BME280;6847;48.830;9.116;2023-01-25T04:55:08;99380.50;;;6.08;63.61
13553;BME280;6847;48.830;9.116;2023-01-25T04:58:03;99385.03;;;6.07;63.19
13553;BME280;6847;48.830;9.116;2023-01-25T05:00:48;99341.69;;;5.84;63.07
13553;BME280;6847;48.830;9.116;2023-01-25T05:03:35;99378.22;;;6.11;63.41
13553;BME280;6847;48.830;9.116;2023-01-25T05:06:21;99380.50;;;6.14;63.10
13553;BME280;6847;48.830;9.116;2023-01-25T05:09:25;99371.56;;;6.20;62.92
13553;BME280;6847;48.830;9.116;2023-01-25T05:14:56;99372.97;;;6.29;63.44
13553;BME280;6847;48.830;9.116;2023-01-25T05:17:48;99360.38;;;6.23;63.14
13553;BME280;6847;48.830;9.116;2023-01-25T05:20:34;99376.28;;;6.31;63.22
13553;BME280;6847;48.830;9.116;2023-01-25T05:23:38;99250.59;;;5.56;63.40
13553;BME280;6847;48.830;9.116;2023-01-25T05:26:27;99332.53;;;6.05;63.01
13553;BME280;6847;48.830;9.116;2023-01-25T05:29:34;99377.16;;;6.25;63.29
13553;BME280;6847;48.830;9.116;2023-01-25T05:32:40;99212.03;;;5.31;63.01
13553;BME280;6847;48.830;9.116;2023-01-25T05:36:07;99000.41;;;3.99;63.09
13553;BME280;6847;48.830;9.116;2023-01-25T05:39:07;99059.91;;;4.34;63.18
13553;BME280;6847;48.830;9.116;2023-01-25T05:41:53;99294.94;;;5.85;63.15
13553;BME280;6847;48.830;9.116;2023-01-25T05:44:53;99029.84;;;4.19;63.08
13553;BME280;6847;48.830;9.116;2023-01-25T05:48:16;99051.28;;;4.19;63.13
13553;BME280;6847;48.830;9.116;2023-01-25T05:51:05;99099.09;;;4.48;63.06
13553;BME280;6847;48.830;9.116;2023-01-25T05:53:53;99342.47;;;6.04;63.40
13553;BME280;6847;48.830;9.116;2023-01-25T05:56:43;99240.91;;;5.48;62.97
13553;BME280;6847;48.830;9.116;2023-01-25T05:59:46;99008.41;;;4.12;62.92
13553;BME280;6847;48.830;9.116;2023-01-25T06:02:46;99311.44;;;6.02;63.28
13553;BME280;6847;48.830;9.116;2023-01-25T06:05:54;99203.97;;;5.37;63.24
13553;BME280;6847;48.830;9.116;2023-01-25T06:08:58;99351.91;;;6.26;63.03
13553;BME280;6847;48.830;9.116;2023-01-25T06:12:13;99354.59;;;6.20;63.57
13553;BME280;6847;48.830;9.116;2023-01-25T06:15:00;99098.47;;;4.59;63.35
13553;BME280;6847;48.830;9.116;2023-01-25T06:17:45;99353.59;;;6.14;63.48
13553;BME280;6847;48.830;9.116;2023-01-25T06:20:30;99347.41;;;6.14;63.28
13553;BME280;6847;48.830;9.116;2023-01-25T06:23:17;99096.59;;;4.53;62.81
13553;BME280;6847;48.830;9.116;2023-01-25T06:26:06;99182.78;;;5.03;63.25
13553;BME280;6847;48.830;9.116;2023-01-25T06:28:52;99349.06;;;6.08;63.49
13553;BME280;6847;48.830;9.116;2023-01-25T06:31:37;99350.72;;;6.09;63.39
13553;BME280;6847;48.830;9.116;2023-01-25T06:34:23;99319.34;;;5.90;63.21
13553;BME280;6847;48.830;9.116;2023-01-25T06:37:08;99340.41;;;6.06;63.33
13553;BME280;6847;48.830;9.116;2023-01-25T06:39:56;99327.53;;;6.08;63.30
13553;BME280;6847;48.830;9.116;2023-01-25T06:42:42;99343.09;;;6.06;63.02
13553;BME280;6847;48.830;9.116;2023-01-25T06:45:29;99235.56;;;5.42;63.49
13553;BME280;6847;48.830;9.116;2023-01-25T06:48:19;99006.16;;;4.02;63.18
13553;BME280;6847;48.830;9.116;2023-01-25T06:51:13;99147.50;;;4.93;63.39
13553;BME280;6847;48.830;9.116;2023-01-25T06:54:01;99334.38;;;6.11;63.26
13553;BME280;6847;48.830;9.116;2023-01-25T06:56:49;99188.13;;;5.16;63.38
13553;BME280;6847;48.830;9.116;2023-01-25T06:59:34;99328.81;;;6.06;63.01
13553;BME280;6847;48.830;9.116;2023-01-25T07:02:20;99335.44;;;6.03;63.01
13553;BME280;6847;48.830;9.116;2023-01-25T07:05:06;99331.72;;;6.04;63.26
13553;BME280;6847;48.830;9.116;2023-01-25T07:07:49;99328.41;;;6.02;63.12
13553;BME280;6847;48.830;9.116;2023-01-25T07:10:34;99324.91;;;6.02;63.16
13553;BME280;6847;48.830;9.116;2023-01-25T07:13:21;99322.00;;;6.03;63.04
13553;BME280;6847;48.830;9.116;2023-01-25T07:16:13;99320.50;;;6.07;63.11
13553;BME280;6847;48.830;9.116;2023-01-25T07:18:59;99326.72;;;6.08;63.20
13553;BME280;6847;48.830;9.116;2023-01-25T07:21:49;99317.41;;;6.10;63.04
13553;BME280;6847;48.830;9.116;2023-01-25T07:24:34;99321.34;;;6.14;62.90
13553;BME280;6847;48.830;9.116;2023-01-25T07:27:20;99326.72;;;6.14;62.90
13553;BME280;6847;48.830;9.116;2023-01-25T07:30:08;99319.25;;;6.16;63.04
13553;BME280;6847;48.830;9.116;2023-01-25T07:32:54;99321.72;;;6.18;63.17
13553;BME280;6847;48.830;9.116;2023-01-25T07:35:44;99234.66;;;5.68;63.22
13553;BME280;6847;48.830;9.116;2023-01-25T07:38:30;99315.50;;;6.17;63.20
13553;BME280;6847;48.830;9.116;2023-01-25T07:41:15;99307.03;;;6.20;63.21
13553;BME280;6847;48.830;9.116;2023-01-25T07:44:00;99306.81;;;6.22;63.13
13553;BME280;6847;48.830;9.116;2023-01-25T07:46:48;99300.59;;;6.21;63.26
13553;BME280;6847;48.830;9.116;2023-01-25T07:49:33;99299.72;;;6.27;63.23
13553;BME280;6847;48.830;9.116;2023-01-25T07:52:19;99296.63;;;6.30;62.81
13553;BME280;6847;48.830;9.116;2023-01-25T07:55:06;99304.88;;;6.36;62.93
13553;BME280;6847;48.830;9.116;2023-01-25T07:57:53;99308.16;;;6.38;62.94
13553;BME280;6847;48.830;9.116;2023-01-25T08:00:38;99298.91;;;6.34;63.06
13553;BME280;6847;48.830;9.116;2023-01-25T08:03:25;99311.66;;;6.45;62.83
13553;BME280;6847;48.830;9.116;2023-01-25T08:06:10;99314.94;;;6.47;62.33
13553;BME280;6847;48.830;9.116;2023-01-25T08:08:57;99311.22;;;6.48;62.43
13553;BME280;6847;48.830;9.116;2023-01-25T08:11:44;99320.31;;;6.47;62.17
13553;BME280;6847;48.830;9.116;2023-01-25T08:14:30;99129.41;;;5.33;62.86
13553;BME280;6847;48.830;9.116;2023-01-25T08:17:15;99318.25;;;6.49;62.75
13553;BME280;6847;48.830;9.116;2023-01-25T08:20:11;99312.88;;;6.49;62.44
13553;BME280;6847;48.830;9.116;2023-01-25T08:22:56;99309.56;;;6.47;62.91
13553;BME280;6847;48.830;9.116;2023-01-25T08:25:42;99306.88;;;6.47;63.06
13553;BME280;6847;48.830;9.116;2023-01-25T08:28:31;99292.28;;;6.29;63.13
13553;BME280;6847;48.830;9.116;2023-01-25T08:31:19;99328.22;;;6.42;62.91
13553;BME280;6847;48.830;9.116;2023-01-25T08:34:06;99317.47;;;6.42;62.79
13553;BME280;6847;48.830;9.116;2023-01-25T08:36:53;99294.34;;;6.27;63.06
13553;BME280;6847;48.830;9.116;2023-01-25T08:39:38;99311.66;;;6.45;62.74
13553;BME280;6847;48.830;9.116;2023-01-25T08:42:23;99286.06;;;6.36;63.18
13553;BME280;6847;48.830;9.116;2023-01-25T08:45:11;99313.28;;;6.52;62.73
13553;BME280;6847;48.830;9.116;2023-01-25T08:47:56;99292.56;;;6.53;63.18
13553;BME280;6847;48.830;9.116;2023-01-25T08:50:44;99260.84;;;6.30;62.87
13553;BME280;6847;48.830;9.116;2023-01-25T08:53:31;99297.94;;;6.53;62.77
13553;BME280;6847;48.830;9.116;2023-01-25T08:56:17;99288.84;;;6.54;63.11
13553;BME280;6847;48.830;9.116;2023-01-25T08:59:08;99285.09;;;6.55;62.66
13553;BME280;6847;48.830;9.116;2023-01-25T09:01:55;99284.66;;;6.58;62.71
13553;BME280;6847;48.830;9.116;2023-01-25T09:04:41;99282.78;;;6.58;62.81
13553;BME280;6847;48.830;9.116;2023-01-25T09:07:27;99280.94;;;6.59;62.75
13553;BME280;6847;48.830;9.116;2023-01-25T09:10:17;99274.28;;;6.61;62.61
13553;BME280;6847;48.830;9.116;2023-01-25T09:13:03;99279.47;;;6.63;63.16
13553;BME280;6847;48.830;9.116;2023-01-25T09:15:48;99282.78;;;6.65;62.74
13553;BME280;6847;48.830;9.116;2023-01-25T09:18:35;99268.13;;;6.54;62.50
13553;BME280;6847;48.830;9.116;2023-01-25T09:21:24;99289.19;;;6.64;62.57
13553;BME280;6847;48.830;9.116;2023-01-25T09:24:11;99278.41;;;6.64;62.81
13553;BME280;6847;48.830;9.116;2023-01-25T09:26:57;99279.00;;;6.66;62.73
13553;BME280;6847;48.830;9.116;2023-01-25T09:29:43;99274.22;;;6.68;62.86
13553;BME280;6847;48.830;9.116;2023-01-25T09:32:28;99263.13;;;6.58;62.58
13553;BME280;6847;48.830;9.116;2023-01-25T09:35:13;99274.63;;;6.72;62.95
13553;BME280;6847;48.830;9.116;2023-01-25T09:38:00;99272.78;;;6.72;62.67
13553;BME280;6847;48.830;9.116;2023-01-25T09:41:03;99272.16;;;6.70;62.95
13553;BME280;6847;48.830;9.116;2023-01-25T09:44:20;99270.50;;;6.69;62.87
13553;BME280;6847;48.830;9.116;2023-01-25T09:47:16;99221.03;;;6.39;62.54
13553;BME280;6847;48.830;9.116;2023-01-25T09:50:32;99258.09;;;6.68;62.96
13553;BME280;6847;48.830;9.116;2023-01-25T09:53:32;99279.59;;;6.75;63.02
13553;BME280;6847;48.830;9.116;2023-01-25T09:56:22;99282.22;;;6.81;62.69
13553;BME280;6847;48.830;9.116;2023-01-25T09:59:14;99275.38;;;6.85;62.48
13553;BME280;6847;48.830;9.116;2023-01-25T10:02:03;99273.25;;;6.87;62.11
13553;BME280;6847;48.830;9.116;2023-01-25T10:04:56;99269.53;;;6.88;62.14
13553;BME280;6847;48.830;9.116;2023-01-25T10:07:52;99241.09;;;6.74;62.24
13553;BME280;6847;48.830;9.116;2023-01-25T10:10:42;99264.75;;;6.90;62.41
13553;BME280;6847;48.830;9.116;2023-01-25T10:13:29;99265.38;;;6.92;62.49
13553;BME280;6847;48.830;9.116;2023-01-25T10:16:23;99250.06;;;6.86;62.14
13553;BME280;6847;48.830;9.116;2023-01-25T10:19:14;99263.28;;;6.94;62.44
13553;BME280;6847;48.830;9.116;2023-01-25T10:22:10;99251.72;;;6.87;62.17
13553;BME280;6847;48.830;9.116;2023-01-25T10:25:22;99258.31;;;6.91;62.12
13553;BME280;6847;48.830;9.116;2023-01-25T10:28:21;99252.72;;;6.93;62.09
13553;BME280;6847;48.830;9.116;2023-01-25T10:31:16;99233.34;;;6.84;62.16
13553;BME280;6847;48.830;9.116;2023-01-25T10:34:14;99191.50;;;6.57;62.26
13553;BME280;6847;48.830;9.116;2023-01-25T10:37:03;99224.03;;;6.80;62.33
13553;BME280;6847;48.830;9.116;2023-01-25T10:39:56;99242.59;;;6.88;62.32
13553;BME280;6847;48.830;9.116;2023-01-25T10:42:49;99210.78;;;6.79;62.18
13553;BME280;6847;48.830;9.116;2023-01-25T10:45:35;99237.53;;;6.98;61.89
13553;BME280;6847;48.830;9.116;2023-01-25T10:48:23;99231.13;;;6.99;61.88
13553;BME280;6847;48.830;9.116;2023-01-25T10:51:27;99179.00;;;6.69;62.18
13553;BME280;6847;48.830;9.116;2023-01-25T10:54:14;99197.31;;;6.85;61.82
13553;BME280;6847;48.830;9.116;2023-01-25T10:57:00;99218.03;;;7.03;61.83
13553;BME280;6847;48.830;9.116;2023-01-25T10:59:49;99199.72;;;6.93;62.01
13553;BME280;6847;48.830;9.116;2023-01-25T11:02:43;99223.34;;;7.10;62.13
13553;BME280;6847;48.830;9.116;2023-01-25T11:05:32;99218.41;;;7.06;62.10
13553;BME280;6847;48.830;9.116;2023-01-25T11:08:24;99208.09;;;7.03;62.11
13553;BME280;6847;48.830;9.116;2023-01-25T11:11:22;99173.72;;;6.81;62.18
13553;BME280;6847;48.830;9.116;2023-01-25T11:14:15;99204.38;;;7.04;61.93
13553;BME280;6847;48.830;9.116;2023-01-25T11:17:04;99206.06;;;6.99;62.14
13553;BME280;6847;48.830;9.116;2023-01-25T11:20:05;99160.78;;;6.71;62.24
13553;BME280;6847;48.830;9.116;2023-01-25T11:22:53;99201.94;;;6.96;62.08
13553;BME280;6847;48.830;9.116;2023-01-25T11:25:43;99201.94;;;6.96;61.83
13553;BME280;6847;48.830;9.116;2023-01-25T11:28:29;99183.38;;;6.88;61.84
13553;BME280;6847;48.830;9.116;2023-01-25T11:31:18;99206.44;;;7.02;61.74
13553;BME280;6847;48.830;9.116;2023-01-25T11:34:09;99051.97;;;6.17;61.55
13553;BME280;6847;48.830;9.116;2023-01-25T11:37:09;99190.28;;;7.02;61.84
13553;BME280;6847;48.830;9.116;2023-01-25T11:40:08;99176.22;;;7.00;61.87
13553;BME280;6847;48.830;9.116;2023-01-25T11:43:15;99185.34;;;6.99;61.64
13553;BME280;6847;48.830;9.116;2023-01-25T11:46:13;99134.81;;;6.77;61.92
13553;BME280;6847;48.830;9.116;2023-01-25T11:49:16;99141.94;;;6.89;61.79
13553;BME280;6847;48.830;9.116;2023-01-25T11:52:14;99167.50;;;7.05;61.68
13553;BME280;6847;48.830;9.116;2023-01-25T11:55:15;99160.22;;;7.05;61.71
13553;BME280;6847;48.830;9.116;2023-01-25T11:58:23;99126.69;;;6.83;61.82
13553;BME280;6847;48.830;9.116;2023-01-25T12:01:21;99140.78;;;6.85;61.79
13553;BME280;6847;48.830;9.116;2023-01-25T12:04:40;99136.78;;;6.88;61.68
13553;BME280;6847;48.830;9.116;2023-01-25T12:07:41;99132.09;;;6.83;62.14
13553;BME280;6847;48.830;9.116;2023-01-25T12:10:37;99126.69;;;6.83;61.73
13553;BME280;6847;48.830;9.116;2023-01-25T12:13:32;99112.78;;;6.86;61.71
13553;BME280;6847;48.830;9.116;2023-01-25T12:16:33;99072.25;;;6.63;61.88
13553;BME280;6847;48.830;9.116;2023-01-25T12:19:30;99106.13;;;6.89;61.75
13553;BME280;6847;48.830;9.116;2023-01-25T12:25:44;99049.38;;;6.54;61.50
13553;BME280;6847;48.830;9.116;2023-01-25T12:28:38;99077.03;;;6.79;61.86
13553;BME280;6847;48.830;9.116;2023-01-25T12:31:31;99073.31;;;6.80;61.70
13553;BME280;6847;48.830;9.116;2023-01-25T12:34:24;99028.00;;;6.59;61.65
13553;BME280;6847;48.830;9.116;2023-01-25T12:37:18;99059.84;;;6.80;61.84
13553;BME280;6847;48.830;9.116;2023-01-25T12:40:08;99054.63;;;6.85;61.75
13553;BME280;6847;48.830;9.116;2023-01-25T12:42:57;99045.94;;;6.83;61.68
13553;BME280;6847;48.830;9.116;2023-01-25T12:45:49;99019.47;;;6.62;61.94
13553;BME280;6847;48.830;9.116;2023-01-25T12:48:40;98979.44;;;6.36;61.94
13553;BME280;6847;48.830;9.116;2023-01-25T12:51:34;99038.75;;;6.77;61.46
13553;BME280;6847;48.830;9.116;2023-01-25T12:54:23;99023.34;;;6.66;61.79
13553;BME280;6847;48.830;9.116;2023-01-25T12:57:20;99006.47;;;6.59;61.92
13553;BME280;6847;48.830;9.116;2023-01-25T13:00:16;99028.69;;;6.73;61.94
13553;BME280;6847;48.830;9.116;2023-01-25T13:03:20;99012.59;;;6.66;61.68
13553;BME280;6847;48.830;9.116;2023-01-25T13:06:17;99015.44;;;6.71;61.71
13553;BME280;6847;48.830;9.116;2023-01-25T13:09:15;99015.00;;;6.74;61.87
13553;BME280;6847;48.830;9.116;2023-01-25T13:12:04;98993.63;;;6.61;61.61
13553;BME280;6847;48.830;9.116;2023-01-25T13:14:51;99007.69;;;6.63;61.71
13553;BME280;6847;48.830;9.116;2023-01-25T13:17:36;99005.59;;;6.65;61.65
13553;BME280;6847;48.830;9.116;2023-01-25T13:20:47;98961.94;;;6.45;61.84
13553;BME280;6847;48.830;9.116;2023-01-25T13:23:52;98631.75;;;4.41;61.38
13553;BME280;6847;48.830;9.116;2023-01-25T13:27:09;98955.97;;;6.43;62.03
13553;BME280;6847;48.830;9.116;2023-01-25T13:30:28;98985.22;;;6.69;61.70
13553;BME280;6847;48.830;9.116;2023-01-25T13:33:31;98988.63;;;6.64;61.50
13553;BME280;6847;48.830;9.116;2023-01-25T13:36:45;98908.59;;;6.05;61.55
13553;BME280;6847;48.830;9.116;2023-01-25T13:39:42;98980.16;;;6.43;61.87
13553;BME280;6847;48.830;9.116;2023-01-25T13:42:31;98972.41;;;6.35;62.19
13553;BME280;6847;48.830;9.116;2023-01-25T13:45:19;98972.69;;;6.45;62.13
13553;BME280;6847;48.830;9.116;2023-01-25T13:48:12;98969.72;;;6.53;62.10
13553;BME280;6847;48.830;9.116;2023-01-25T13:51:08;98968.34;;;6.62;61.75
13553;BME280;6847;48.830;9.116;2023-01-25T13:53:58;98962.06;;;6.68;61.16
13553;BME280;6847;48.830;9.116;2023-01-25T13:56:44;98959.97;;;6.70;61.40
13553;BME280;6847;48.830;9.116;2023-01-25T13:59:31;98957.06;;;6.72;61.42
13553;BME280;6847;48.830;9.116;2023-01-25T14:02:18;98957.88;;;6.72;61.57
13553;BME280;6847;48.830;9.116;2023-01-25T14:05:14;98932.34;;;6.63;61.44
13553;BME280;6847;48.830;9.116;2023-01-25T14:08:02;98939.81;;;6.61;61.15
13553;BME280;6847;48.830;9.116;2023-01-25T14:10:52;98949.81;;;6.72;61.30
13553;BME280;6847;48.830;9.116;2023-01-25T14:13:54;98948.75;;;6.73;61.43
13553;BME280;6847;48.830;9.116;2023-01-25T14:16:39;98896.63;;;6.38;61.53
13553;BME280;6847;48.830;9.116;2023-01-25T14:19:26;98955.78;;;6.74;61.43
13553;BME280;6847;48.830;9.116;2023-01-25T14:22:19;98881.00;;;6.28;61.33
13553;BME280;6847;48.830;9.116;2023-01-25T14:25:11;98952.94;;;6.69;61.34
13553;BME280;6847;48.830;9.116;2023-01-25T14:28:01;98949.66;;;6.67;61.09
13553;BME280;6847;48.830;9.116;2023-01-25T14:30:51;98938.53;;;6.63;61.44
13553;BME280;6847;48.830;9.116;2023-01-25T14:33:38;98933.59;;;6.60;61.41
13553;BME280;6847;48.830;9.116;2023-01-25T14:36:29;98952.94;;;6.69;61.43
13553;BME280;6847;48.830;9.116;2023-01-25T14:39:25;98950.25;;;6.69;61.69
13553;BME280;6847;48.830;9.116;2023-01-25T14:42:12;98937.25;;;6.66;61.28
13553;BME280;6847;48.830;9.116;2023-01-25T14:45:00;98914.69;;;6.49;61.57
13553;BME280;6847;48.830;9.116;2023-01-25T14:47:45;98909.91;;;6.51;61.43
13553;BME280;6847;48.830;9.116;2023-01-25T14:50:32;98907.00;;;6.52;61.29
13553;BME280;6847;48.830;9.116;2023-01-25T14:53:20;98874.81;;;6.27;61.63
13553;BME280;6847;48.830;9.116;2023-01-25T14:56:18;98922.44;;;6.57;61.39
13553;BME280;6847;48.830;9.116;2023-01-25T14:59:05;98916.72;;;6.53;61.55
13553;BME280;6847;48.830;9.116;2023-01-25T15:01:56;98913.03;;;6.48;61.60
13553;BME280;6847;48.830;9.116;2023-01-25T15:04:52;98918.44;;;6.48;61.23
13553;BME280;6847;48.830;9.116;2023-01-25T15:07:46;98913.53;;;6.45;61.41
13553;BME280;6847;48.830;9.116;2023-01-25T15:10:32;98915.00;;;6.41;61.37
13553;BME280;6847;48.830;9.116;2023-01-25T15:13:22;98913.53;;;6.26;61.69
13553;BME280;6847;48.830;9.116;2023-01-25T15:16:17;98908.91;;;6.15;61.74
13553;BME280;6847;48.830;9.116;2023-01-25T15:19:24;98876.13;;;5.82;62.07
13553;BME280;6847;48.830;9.116;2023-01-25T15:22:14;98897.38;;;5.90;62.31
13553;BME280;6847;48.830;9.116;2023-01-25T15:25:00;98888.53;;;5.83;62.22
13553;BME280;6847;48.830;9.116;2023-01-25T15:27:45;98888.09;;;5.86;62.06
13553;BME280;6847;48.830;9.116;2023-01-25T15:30:38;98894.28;;;5.86;62.13
13553;BME280;6847;48.830;9.116;2023-01-25T15:33:28;98888.25;;;5.91;61.79
13553;BME280;6847;48.830;9.116;2023-01-25T15:36:16;98878.84;;;6.00;61.44
13553;BME280;6847;48.830;9.116;2023-01-25T15:39:03;98871.41;;;6.02;61.34
13553;BME280;6847;48.830;9.116;2023-01-25T15:41:51;98844.47;;;5.84;61.46
13553;BME280;6847;48.830;9.116;2023-01-25T15:44:36;98878.56;;;5.90;61.46
13553;BME280;6847;48.830;9.116;2023-01-25T15:47:21;98852.94;;;5.87;61.53
13553;BME280;6847;48.830;9.116;2023-01-25T15:50:16;98865.41;;;6.00;61.73
13553;BME280;6847;48.830;9.116;2023-01-25T15:53:04;98852.72;;;6.07;61.83
13553;BME280;6847;48.830;9.116;2023-01-25T15:55:52;98851.84;;;6.13;60.97
13553;BME280;6847;48.830;9.116;2023-01-25T15:58:41;98843.91;;;6.18;61.25
13553;BME280;6847;48.830;9.116;2023-01-25T16:01:28;98845.53;;;6.19;61.21
13553;BME280;6847;48.830;9.116;2023-01-25T16:04:13;98851.09;;;6.06;61.94
13553;BME280;6847;48.830;9.116;2023-01-25T16:06:59;98844.50;;;6.02;61.49
13553;BME280;6847;48.830;9.116;2023-01-25T16:09:46;98832.56;;;5.98;62.04
13553;BME280;6847;48.830;9.116;2023-01-25T16:12:33;98839.06;;;6.09;61.28